Meath Environmental Platform

Observations for Trim Patrick St

Time AQI Temp °C Hum % Pres Pa CO μg/m³ H₂S μg/m³ NO μg/m³ NO₂ μg/m³ O₃ μg/m³ SO₂ μg/m³ PM1 μg/m³ PM2.5 μg/m³ PM10 μg/m³
Sunday 2 August 2026
05:20 2 13 78 38,460 0.32 1.21 2.17 22.15 23.26 0 7.14 13.13 14.45
05:18 2 13.1 78 38,460 0.31 1.47 2.19 22.99 21.99 0 6.29 12.44 13.68
05:17 2 13.1 78 38,460 0.31 1.13 2.17 22.41 22.34 0 7.14 11.03 12.13
05:16 2 13.1 78 38,460 0.31 1.29 2.43 22.7 23.01 0 5.43 9.62 10.58
05:15 2 13.1 78 38,460 0.31 1.34 2.34 22.41 22.16 0 7.14 13.14 14.46
05:14 2 13.1 78 38,460 0.31 1.78 2.52 22.7 20.78 0 8 13.14 14.46
05:13 2 13.1 78 38,460 0.31 2.01 2.25 23.58 20.71 0 8 11.73 12.91
05:12 2 13.1 78 38,460 0.31 2.01 2.41 22.99 20.69 0 6.29 11.73 12.91
05:10 2 13.1 78 38,460 0.31 1.83 2.26 23.86 21.91 0 7.14 13.85 15.23
05:09 2 13 78 38,460 0.31 1.75 2.16 23.04 23.27 0 7.14 13.14 14.46
05:08 2 13.1 78 38,460 0.31 1.73 2.17 23.86 24.43 0 6.29 11.73 12.91
05:07 2 13 78 38,460 0.31 1.57 2.26 23.92 21.99 0 6.29 11.03 12.13
05:06 2 13.1 78 38,460 0.32 1.6 2.59 23.28 22.09 0 7.14 11.73 12.91
05:05 2 13.1 78 38,460 0.3 1.52 2.56 22.08 24.2 0 7.14 11.03 12.13
05:04 2 13.1 78 38,460 0.31 1.83 2.67 21.09 25.28 0 7.14 11.73 12.91
05:03 2 13.1 77 38,460 0.31 1.57 2.5 21.39 22.88 0 6.29 12.45 13.69
05:02 2 13.1 77 38,460 0.33 1.39 2.28 20.69 24.07 0 7.14 13.15 14.47
05:01 2 13.1 77 38,460 0.3 2.17 2.15 22.67 23.31 0 6.29 11.74 12.91
05:00 2 13.1 77 38,460 0.31 2.07 2.05 23.83 24.71 0 7.14 11.03 12.14
04:58 2 13.1 77 38,460 0.31 2.89 2.19 28.27 21.84 0 5.43 11.03 12.14